createdAt,value
2019-06-26T00:01:08.632Z,71.45
2019-06-26T00:03:39.848Z,71.11
2019-06-26T00:06:10.086Z,71.20
2019-06-26T00:08:40.224Z,71.10
2019-06-26T00:11:10.372Z,70.95
2019-06-26T00:13:40.572Z,71.05
2019-06-26T00:16:10.707Z,71.35
2019-06-26T00:18:40.829Z,71.25
2019-06-26T00:21:10.961Z,71.45
2019-06-26T00:23:41.108Z,71.36
2019-06-26T00:26:11.303Z,71.34
2019-06-26T00:28:41.440Z,71.16
2019-06-26T00:31:12.245Z,71.41
2019-06-26T00:33:43.657Z,71.54
2019-06-26T00:36:13.779Z,71.67
2019-06-26T00:38:44.020Z,71.57
2019-06-26T00:41:14.212Z,71.65
2019-06-26T00:43:44.351Z,71.22
2019-06-26T00:46:14.497Z,70.87
2019-06-26T00:48:45.152Z,70.88
2019-06-26T00:51:15.284Z,71.23
2019-06-26T00:53:45.407Z,71.33
2019-06-26T00:56:15.540Z,71.34
2019-06-26T00:58:45.665Z,71.25
2019-06-26T01:01:16.083Z,71.34
2019-06-26T01:03:47.448Z,71.47
2019-06-26T01:06:35.632Z,71.21
2019-06-26T01:09:07.254Z,70.72
2019-06-26T01:11:37.449Z,71.03
2019-06-26T01:14:07.575Z,71.23
2019-06-26T01:16:37.694Z,71.25
2019-06-26T01:19:07.816Z,71.88
2019-06-26T01:21:37.941Z,72.69
2019-06-26T01:24:08.074Z,73.30
2019-06-26T01:26:38.214Z,71.62
2019-06-26T01:29:08.355Z,69.94
2019-06-26T01:31:38.484Z,70.45
2019-06-26T01:34:08.647Z,71.43
2019-06-26T01:36:39.863Z,71.27
2019-06-26T01:39:10.132Z,70.81
2019-06-26T01:41:40.244Z,70.73
2019-06-26T01:44:15.378Z,70.57
2019-06-26T01:46:42.182Z,70.85
2019-06-26T01:49:12.343Z,70.29
2019-06-26T01:51:42.464Z,70.94
2019-06-26T01:54:12.640Z,71.14
2019-06-26T01:56:42.765Z,71.15
2019-06-26T01:59:12.897Z,71.36
2019-06-26T02:01:43.062Z,71.43
2019-06-26T02:04:15.559Z,71.29
2019-06-26T02:06:45.030Z,71.12
2019-06-26T02:09:15.179Z,70.54
2019-06-26T02:11:45.301Z,70.13
2019-06-26T02:14:29.900Z,70.69
2019-06-26T02:16:47.253Z,70.97
2019-06-26T02:19:19.188Z,71.33
2019-06-26T02:21:50.308Z,71.23
2019-06-26T02:24:20.497Z,71.40
2019-06-26T02:26:50.635Z,71.26
2019-06-26T02:29:20.775Z,71.20
2019-06-26T02:31:50.912Z,70.64
2019-06-26T02:34:21.031Z,71.08
2019-06-26T02:36:51.138Z,71.18
2019-06-26T02:39:21.303Z,70.84
2019-06-26T02:41:51.403Z,71.14
2019-06-26T02:44:21.567Z,71.23
2019-06-26T02:46:51.684Z,71.72
2019-06-26T02:49:21.950Z,71.43
2019-06-26T02:51:52.658Z,71.10
2019-06-26T02:54:22.870Z,70.38
2019-06-26T02:56:52.999Z,70.64
2019-06-26T02:59:23.128Z,70.77
2019-06-26T03:01:53.269Z,70.87
2019-06-26T03:04:23.377Z,71.10
2019-06-26T03:06:53.650Z,71.41
2019-06-26T03:09:23.794Z,71.37
2019-06-26T03:11:53.943Z,71.58
2019-06-26T03:14:24.089Z,72.00
2019-06-26T03:16:54.220Z,72.22
2019-06-26T03:19:24.353Z,71.70
2019-06-26T03:21:54.476Z,71.28
2019-06-26T03:24:24.625Z,71.16
2019-06-26T03:26:54.740Z,70.39
2019-06-26T03:29:24.888Z,70.60
2019-06-26T03:31:56.037Z,71.10
2019-06-26T03:34:26.183Z,71.43
2019-06-26T03:36:56.355Z,71.67
2019-06-26T03:39:26.588Z,71.98
2019-06-26T03:41:56.725Z,72.05
2019-06-26T03:44:26.849Z,72.29
2019-06-26T03:46:56.989Z,72.23
2019-06-26T03:49:27.164Z,72.54
2019-06-26T03:51:57.316Z,73.02
2019-06-26T03:54:27.457Z,73.51
2019-06-26T03:56:57.603Z,73.16
2019-06-26T03:59:27.768Z,73.33
2019-06-26T04:01:57.928Z,73.15
2019-06-26T04:04:28.263Z,73.04
2019-06-26T04:06:58.417Z,72.81
2019-06-26T04:09:28.564Z,72.79
2019-06-26T04:11:58.709Z,72.88
2019-06-26T04:14:28.858Z,73.04
2019-06-26T04:16:59.017Z,73.03
2019-06-26T04:19:29.174Z,73.17
2019-06-26T04:21:59.398Z,73.14
2019-06-26T04:24:29.579Z,73.05
2019-06-26T04:26:59.776Z,73.24
2019-06-26T04:29:29.912Z,73.21
2019-06-26T04:32:00.041Z,73.33
2019-06-26T04:34:30.175Z,73.54
2019-06-26T04:37:00.301Z,73.49
2019-06-26T04:39:30.429Z,73.83
2019-06-26T04:42:00.558Z,73.77
2019-06-26T04:44:30.713Z,73.67
2019-06-26T04:47:00.862Z,73.50
2019-06-26T04:49:31.932Z,73.33
2019-06-26T04:52:02.068Z,72.82
2019-06-26T04:54:32.371Z,72.16
2019-06-26T04:57:02.494Z,72.39
2019-06-26T04:59:32.622Z,72.57
2019-06-26T05:02:02.750Z,72.61
2019-06-26T05:04:33.966Z,72.50
2019-06-26T05:07:04.295Z,72.57
2019-06-26T05:09:34.467Z,72.01
2019-06-26T05:12:04.600Z,70.82
2019-06-26T05:14:34.740Z,69.36
2019-06-26T05:17:04.979Z,68.20
2019-06-26T05:19:35.183Z,69.49
2019-06-26T05:22:06.318Z,70.04
2019-06-26T05:24:37.266Z,70.73
2019-06-26T05:27:07.406Z,71.27
2019-06-26T05:29:37.544Z,71.49
2019-06-26T05:32:07.681Z,71.75
2019-06-26T05:34:37.858Z,71.15
2019-06-26T05:37:07.993Z,71.16
2019-06-26T05:39:38.142Z,71.81
2019-06-26T05:42:08.278Z,72.06
2019-06-26T05:44:39.514Z,72.73
2019-06-26T05:47:09.659Z,74.34
2019-06-26T05:49:40.027Z,74.43
2019-06-26T05:52:10.163Z,74.31
2019-06-26T05:54:40.297Z,74.48
2019-06-26T05:57:10.425Z,74.24
2019-06-26T05:59:40.571Z,74.01
2019-06-26T06:02:10.697Z,73.73
2019-06-26T06:04:40.832Z,73.28
2019-06-26T06:07:10.968Z,73.99
2019-06-26T06:09:41.102Z,74.14
2019-06-26T06:12:11.247Z,73.98
2019-06-26T06:14:41.384Z,74.00
2019-06-26T06:17:11.511Z,73.84
2019-06-26T06:19:41.638Z,73.64
2019-06-26T06:22:11.784Z,73.69
2019-06-26T06:24:42.228Z,73.93
2019-06-26T06:27:12.333Z,74.00
2019-06-26T06:29:42.462Z,73.77
2019-06-26T06:32:12.603Z,73.71
2019-06-26T06:34:42.801Z,73.83
2019-06-26T06:37:12.961Z,74.03
2019-06-26T06:39:43.168Z,74.54
2019-06-26T06:42:13.307Z,74.72
2019-06-26T06:44:43.436Z,74.46
2019-06-26T06:47:13.551Z,74.37
2019-06-26T06:49:43.714Z,74.27
2019-06-26T06:52:16.590Z,74.62
2019-06-26T06:54:45.695Z,74.17
2019-06-26T06:57:15.799Z,74.00
2019-06-26T06:59:45.945Z,73.96
2019-06-26T07:02:16.074Z,74.01
2019-06-26T07:04:46.215Z,73.45
2019-06-26T07:07:16.340Z,73.21
2019-06-26T07:09:46.788Z,73.67
2019-06-26T07:12:16.957Z,74.21
2019-06-26T07:14:48.757Z,74.56
2019-06-26T07:17:21.153Z,74.49
2019-06-26T07:19:50.755Z,74.14
2019-06-26T07:22:20.878Z,74.52
2019-06-26T07:24:51.025Z,74.52
2019-06-26T07:27:21.132Z,74.33
2019-06-26T07:29:51.271Z,74.26
2019-06-26T07:32:21.391Z,73.84
2019-06-26T07:34:51.617Z,73.53
2019-06-26T07:37:21.835Z,73.66
2019-06-26T07:39:51.999Z,73.31
2019-06-26T07:42:22.173Z,73.03
2019-06-26T07:44:52.315Z,73.26
2019-06-26T07:47:28.245Z,72.74
2019-06-26T07:49:54.435Z,72.67
2019-06-26T07:52:24.554Z,72.29
2019-06-26T07:54:55.939Z,71.87
2019-06-26T07:57:26.130Z,72.13
2019-06-26T07:59:56.248Z,71.80
2019-06-26T08:02:26.409Z,71.71
2019-06-26T08:04:56.702Z,72.21
2019-06-26T08:07:26.834Z,72.42
2019-06-26T08:09:56.986Z,72.41
2019-06-26T08:12:27.134Z,72.08
2019-06-26T08:14:57.276Z,71.72
2019-06-26T08:17:27.393Z,71.44
2019-06-26T08:19:57.673Z,71.33
2019-06-26T08:22:27.778Z,71.33
2019-06-26T08:24:57.908Z,71.55
2019-06-26T08:27:28.042Z,71.80
2019-06-26T08:29:58.310Z,72.66
2019-06-26T08:32:28.458Z,72.05
2019-06-26T08:34:58.815Z,72.09
2019-06-26T08:37:28.936Z,70.57
2019-06-26T08:39:59.698Z,70.99
2019-06-26T08:42:29.856Z,70.50
2019-06-26T08:44:59.988Z,70.88
2019-06-26T08:47:30.147Z,70.68
2019-06-26T08:50:00.450Z,70.30
2019-06-26T08:52:31.063Z,70.27
2019-06-26T08:55:01.226Z,69.87
2019-06-26T08:57:31.347Z,70.40
2019-06-26T09:00:02.541Z,69.83
2019-06-26T09:02:33.797Z,68.45
2019-06-26T09:05:03.946Z,69.22
2019-06-26T09:07:34.219Z,69.25
2019-06-26T09:10:04.564Z,69.77
2019-06-26T09:12:34.718Z,68.43
2019-06-26T09:15:05.100Z,67.54
2019-06-26T09:17:36.530Z,67.33
2019-06-26T09:20:07.985Z,66.95
2019-06-26T09:22:38.114Z,66.65
2019-06-26T09:25:20.893Z,67.31
2019-06-26T09:27:40.755Z,66.46
2019-06-26T09:30:11.308Z,66.53
2019-06-26T09:32:41.463Z,65.92
2019-06-26T09:35:11.727Z,64.77
2019-06-26T09:37:41.897Z,65.44
2019-06-26T09:40:12.188Z,65.97
2019-06-26T09:42:42.331Z,66.12
2019-06-26T09:45:14.145Z,66.59
2019-06-26T09:47:44.285Z,66.36
2019-06-26T09:50:17.223Z,66.22
2019-06-26T09:52:49.092Z,65.26
2019-06-26T09:55:19.424Z,65.00
2019-06-26T09:57:49.552Z,64.13
2019-06-26T10:00:21.257Z,63.96
2019-06-26T10:02:51.392Z,63.64
2019-06-26T10:05:21.726Z,63.97
2019-06-26T10:07:52.223Z,64.40
2019-06-26T10:10:22.464Z,64.94
2019-06-26T10:12:52.616Z,64.25
2019-06-26T10:15:23.854Z,64.28
2019-06-26T10:17:53.974Z,63.67
2019-06-26T10:20:24.185Z,62.61
2019-06-26T10:22:54.317Z,63.28
2019-06-26T10:25:24.480Z,63.45
2019-06-26T10:27:54.629Z,63.31
2019-06-26T10:30:24.892Z,63.09
2019-06-26T10:32:55.011Z,62.41
2019-06-26T10:35:25.148Z,63.01
2019-06-26T10:37:55.287Z,62.81
2019-06-26T10:40:25.441Z,63.09
2019-06-26T10:42:55.574Z,62.24
2019-06-26T10:45:25.728Z,62.68
2019-06-26T10:47:55.924Z,62.70
2019-06-26T10:50:26.375Z,61.73
2019-06-26T10:52:56.516Z,61.88
2019-06-26T10:55:26.667Z,61.60
2019-06-26T10:57:56.804Z,62.35
2019-06-26T11:00:27.161Z,62.62
2019-06-26T11:02:57.283Z,62.54
2019-06-26T11:05:28.258Z,61.93
2019-06-26T11:07:58.466Z,62.34
2019-06-26T11:10:28.713Z,63.06
2019-06-26T11:12:58.855Z,62.76
2019-06-26T11:15:28.983Z,62.44
2019-06-26T11:17:59.116Z,63.40
2019-06-26T11:20:29.327Z,64.06
2019-06-26T11:22:59.474Z,64.21
2019-06-26T11:25:29.614Z,63.59
2019-06-26T11:27:59.728Z,63.95
2019-06-26T11:30:30.937Z,63.84
2019-06-26T11:33:01.089Z,64.04
2019-06-26T11:35:31.212Z,64.32
2019-06-26T11:38:01.360Z,65.32
2019-06-26T11:40:32.594Z,66.08
2019-06-26T11:43:02.748Z,66.84
2019-06-26T11:45:32.878Z,67.55
2019-06-26T11:48:03.032Z,68.04
2019-06-26T11:50:33.251Z,68.63
2019-06-26T11:53:03.370Z,69.07
2019-06-26T11:55:33.508Z,68.99
2019-06-26T11:58:03.626Z,69.34
2019-06-26T12:00:33.748Z,70.26
2019-06-26T12:03:04.291Z,71.02
2019-06-26T12:05:34.471Z,70.98
2019-06-26T12:08:04.593Z,70.43
2019-06-26T12:10:34.723Z,70.51
2019-06-26T12:13:04.838Z,70.98
2019-06-26T12:15:34.988Z,70.23
2019-06-26T12:18:05.235Z,70.96
2019-06-26T12:20:35.379Z,70.44
2019-06-26T12:23:05.565Z,69.44
2019-06-26T12:25:35.750Z,69.11
2019-06-26T12:28:06.289Z,67.79
2019-06-26T12:30:36.432Z,66.79
2019-06-26T12:33:06.570Z,65.80
2019-06-26T12:35:36.717Z,65.59
2019-06-26T12:38:08.509Z,65.16
2019-06-26T12:40:38.674Z,65.22
2019-06-26T12:43:08.795Z,66.00
2019-06-26T12:45:38.929Z,66.07
2019-06-26T12:48:09.123Z,65.88
2019-06-26T12:50:39.292Z,66.22
2019-06-26T12:53:09.427Z,66.36
2019-06-26T12:55:39.596Z,66.35
2019-06-26T12:58:13.808Z,66.46
2019-06-26T13:00:41.717Z,66.75
2019-06-26T13:03:11.828Z,67.03
2019-06-26T13:05:41.976Z,67.77
2019-06-26T13:08:12.108Z,68.05
2019-06-26T13:10:49.667Z,68.43
2019-06-26T13:13:14.106Z,68.75
2019-06-26T13:15:44.390Z,68.97
2019-06-26T13:18:14.540Z,69.52
2019-06-26T13:20:52.840Z,69.66
2019-06-26T13:23:16.529Z,70.19
2019-06-26T13:25:47.715Z,70.34
2019-06-26T13:28:17.855Z,69.87
2019-06-26T13:30:47.982Z,69.49
2019-06-26T13:33:18.475Z,69.58
2019-06-26T13:35:48.647Z,68.85
2019-06-26T13:38:18.744Z,68.49
2019-06-26T13:40:48.881Z,69.95
2019-06-26T13:43:19.025Z,70.90
2019-06-26T13:45:49.154Z,70.62
2019-06-26T13:48:19.283Z,70.59
2019-06-26T13:50:49.530Z,71.68
2019-06-26T13:53:19.606Z,72.44
2019-06-26T13:55:49.755Z,72.71
2019-06-26T13:58:19.895Z,72.42
2019-06-26T14:00:50.033Z,72.62
2019-06-26T14:03:20.161Z,72.76
2019-06-26T14:05:50.280Z,72.50
2019-06-26T14:08:20.408Z,72.24
2019-06-26T14:10:50.549Z,71.44
2019-06-26T14:13:20.693Z,71.26
2019-06-26T14:15:50.815Z,71.60
2019-06-26T14:18:20.945Z,71.53
2019-06-26T14:20:51.076Z,71.59
2019-06-26T14:23:21.191Z,71.81
2019-06-26T14:25:51.393Z,71.76
2019-06-26T14:28:21.536Z,72.06
2019-06-26T14:30:51.895Z,72.03
2019-06-26T14:33:22.081Z,71.57
2019-06-26T14:35:53.287Z,71.06
2019-06-26T14:38:23.454Z,71.12
2019-06-26T14:40:53.578Z,71.62
2019-06-26T14:43:23.685Z,71.36
2019-06-26T14:45:53.824Z,71.01
2019-06-26T14:48:23.947Z,71.63
2019-06-26T14:50:54.303Z,71.73
2019-06-26T14:53:24.412Z,71.85
2019-06-26T14:55:54.537Z,72.05
2019-06-26T14:58:24.741Z,72.19
2019-06-26T15:00:54.874Z,72.31
2019-06-26T15:03:25.047Z,72.58
2019-06-26T15:05:55.179Z,72.86
2019-06-26T15:08:25.312Z,72.63
2019-06-26T15:10:55.480Z,72.84
2019-06-26T15:13:25.611Z,72.90
2019-06-26T15:15:55.752Z,73.22
2019-06-26T15:18:25.882Z,72.83
2019-06-26T15:20:56.013Z,71.73
2019-06-26T15:23:26.137Z,72.12
2019-06-26T15:25:56.283Z,72.32
2019-06-26T15:28:26.476Z,72.39
2019-06-26T15:30:56.631Z,72.22
2019-06-26T15:33:26.766Z,72.01
2019-06-26T15:35:56.900Z,71.95
2019-06-26T15:38:27.026Z,72.07
2019-06-26T15:40:57.230Z,71.45
2019-06-26T15:43:27.358Z,71.67
2019-06-26T15:45:57.513Z,71.74
2019-06-26T15:48:27.631Z,71.73
2019-06-26T15:50:57.807Z,71.11
2019-06-26T15:53:27.937Z,71.01
2019-06-26T15:55:58.124Z,70.50
2019-06-26T15:58:28.249Z,70.94
2019-06-26T16:00:58.416Z,70.67
2019-06-26T16:03:28.540Z,71.23
2019-06-26T16:05:58.676Z,70.84
2019-06-26T16:08:28.793Z,71.15
2019-06-26T16:10:58.932Z,71.14
2019-06-26T16:13:29.863Z,70.73
2019-06-26T16:16:00.676Z,71.00
2019-06-26T16:18:44.590Z,69.82
2019-06-26T16:21:14.725Z,69.99
2019-06-26T16:23:44.835Z,69.81
2019-06-26T16:26:15.003Z,69.67
2019-06-26T16:28:45.121Z,69.92
2019-06-26T16:31:15.253Z,70.27
2019-06-26T16:33:45.493Z,69.77
2019-06-26T16:36:15.633Z,69.47
2019-06-26T16:38:45.823Z,69.30
2019-06-26T16:41:15.974Z,68.18
2019-06-26T16:43:46.099Z,67.58
2019-06-26T16:48:45.049Z,67.52
2019-06-26T16:51:15.225Z,67.82
2019-06-26T16:53:45.365Z,67.01
2019-06-26T16:56:15.505Z,67.49
2019-06-26T16:58:45.645Z,67.77
2019-06-26T17:01:15.770Z,68.23
2019-06-26T17:03:46.023Z,68.82
2019-06-26T17:06:16.851Z,69.09
2019-06-26T17:08:46.981Z,68.21
2019-06-26T17:11:17.109Z,68.18
2019-06-26T17:13:47.271Z,68.14
2019-06-26T17:16:17.418Z,68.61
2019-06-26T17:18:47.558Z,68.99
2019-06-26T17:21:17.684Z,69.29
2019-06-26T17:23:47.821Z,69.40
2019-06-26T17:26:17.951Z,69.49
2019-06-26T17:28:48.100Z,68.96
2019-06-26T17:31:18.222Z,67.87
2019-06-26T17:33:48.371Z,68.17
2019-06-26T17:36:18.482Z,68.05
2019-06-26T17:38:48.617Z,67.68
2019-06-26T17:41:18.740Z,68.17
2019-06-26T17:43:48.928Z,68.23
2019-06-26T17:46:19.045Z,68.09
2019-06-26T17:48:49.199Z,67.66
2019-06-26T17:51:19.449Z,67.03
2019-06-26T17:53:49.573Z,66.85
2019-06-26T17:56:19.719Z,66.84
2019-06-26T17:58:49.851Z,67.03
2019-06-26T18:01:19.969Z,66.73
2019-06-26T18:03:50.105Z,66.94
2019-06-26T18:06:20.226Z,66.51
2019-06-26T18:08:50.461Z,66.10
2019-06-26T18:11:20.640Z,66.03
2019-06-26T18:13:50.798Z,65.50
2019-06-26T18:16:20.936Z,64.84
2019-06-26T18:18:51.090Z,65.10
2019-06-26T18:21:21.249Z,65.04
2019-06-26T18:23:51.400Z,65.09
2019-06-26T18:26:21.573Z,65.30
2019-06-26T18:28:51.741Z,65.35
2019-06-26T18:31:21.899Z,65.00
2019-06-26T18:33:52.047Z,64.74
2019-06-26T18:36:22.197Z,64.80
2019-06-26T18:38:52.392Z,64.82
2019-06-26T18:41:22.533Z,64.95
2019-06-26T18:43:52.688Z,64.99
2019-06-26T18:46:24.995Z,65.12
2019-06-26T18:48:54.803Z,65.31
2019-06-26T18:51:25.010Z,65.29
2019-06-26T18:53:55.183Z,65.77
2019-06-26T18:56:25.351Z,65.89
2019-06-26T18:58:55.556Z,65.75
2019-06-26T19:01:25.837Z,65.47
2019-06-26T19:03:55.943Z,65.33
2019-06-26T19:06:26.102Z,65.54
2019-06-26T19:08:56.221Z,65.50
2019-06-26T19:11:26.362Z,65.39
2019-06-26T19:13:56.480Z,65.35
2019-06-26T19:16:26.643Z,65.64
2019-06-26T19:18:56.795Z,65.74
2019-06-26T19:21:26.955Z,65.50
2019-06-26T19:24:09.521Z,65.55
2019-06-26T19:26:29.073Z,65.76
2019-06-26T19:28:59.243Z,65.38
2019-06-26T19:31:29.414Z,65.11
2019-06-26T19:33:59.530Z,65.26
2019-06-26T19:36:29.686Z,65.28
2019-06-26T19:39:01.049Z,65.51
2019-06-26T19:41:32.956Z,65.31
2019-06-26T19:44:03.185Z,65.44
2019-06-26T19:46:33.489Z,65.81
2019-06-26T19:49:03.635Z,65.99
2019-06-26T19:51:33.863Z,65.73
2019-06-26T19:54:03.990Z,65.67
2019-06-26T19:56:34.118Z,65.85
2019-06-26T19:59:04.247Z,65.90
2019-06-26T20:01:34.410Z,65.94
2019-06-26T20:04:04.587Z,65.96
2019-06-26T20:06:34.740Z,66.19
2019-06-26T20:09:06.312Z,66.07
2019-06-26T20:11:36.457Z,66.10
2019-06-26T20:14:06.630Z,66.38
2019-06-26T20:16:36.781Z,66.75
2019-06-26T20:19:08.137Z,67.10
2019-06-26T20:21:38.319Z,67.49
2019-06-26T20:24:08.575Z,67.77
2019-06-26T20:26:38.742Z,68.14
2019-06-26T20:29:08.871Z,68.52
2019-06-26T20:31:39.077Z,68.62
2019-06-26T20:34:09.251Z,68.55
2019-06-26T20:36:39.486Z,68.81
2019-06-26T20:39:09.613Z,68.40
2019-06-26T20:41:39.778Z,68.12
2019-06-26T20:44:10.031Z,67.94
2019-06-26T20:46:40.190Z,67.87
2019-06-26T20:49:10.349Z,68.23
2019-06-26T20:51:40.602Z,68.16
2019-06-26T20:54:10.877Z,68.09
2019-06-26T20:56:41.061Z,67.98
2019-06-26T20:59:11.217Z,68.14
2019-06-26T21:01:41.395Z,68.30
2019-06-26T21:04:11.562Z,68.98
2019-06-26T21:06:41.768Z,69.07
2019-06-26T21:09:11.917Z,69.01
2019-06-26T21:11:42.139Z,69.02
2019-06-26T21:14:12.304Z,68.97
2019-06-26T21:16:43.808Z,68.84
2019-06-26T21:19:13.897Z,68.99
2019-06-26T21:21:44.109Z,69.26
2019-06-26T21:24:14.279Z,68.56
2019-06-26T21:26:44.527Z,68.08
2019-06-26T21:29:14.828Z,68.49
2019-06-26T21:31:44.994Z,68.79
2019-06-26T21:34:18.124Z,69.18
2019-06-26T21:36:48.567Z,69.99
2019-06-26T21:39:18.672Z,70.16
2019-06-26T21:41:48.903Z,70.42
2019-06-26T21:44:18.999Z,70.16
2019-06-26T21:46:49.513Z,70.30
2019-06-26T21:49:20.282Z,69.74
2019-06-26T21:51:50.938Z,69.52
2019-06-26T21:54:21.140Z,69.22
2019-06-26T21:57:10.561Z,69.32
2019-06-26T21:59:58.437Z,68.55
2019-06-26T22:02:48.060Z,68.89
2019-06-26T22:05:20.089Z,69.54
2019-06-26T22:07:54.558Z,69.42
2019-06-26T22:10:26.601Z,68.62
2019-06-26T22:12:56.905Z,69.21
2019-06-26T22:15:27.105Z,68.97
2019-06-26T22:17:57.311Z,68.76
2019-06-26T22:20:27.623Z,68.68
2019-06-26T22:22:57.774Z,68.79
2019-06-26T22:25:27.900Z,69.13
2019-06-26T22:27:58.045Z,69.82
2019-06-26T22:30:31.281Z,69.82
2019-06-26T22:33:01.468Z,69.91
2019-06-26T22:35:31.580Z,69.75
2019-06-26T22:38:01.716Z,70.57
2019-06-26T22:40:31.846Z,69.90
2019-06-26T22:43:01.979Z,70.08
2019-06-26T22:45:32.102Z,69.43
2019-06-26T22:48:02.233Z,69.98
2019-06-26T22:50:32.362Z,69.87
2019-06-26T22:53:02.690Z,69.43
2019-06-26T22:55:32.870Z,69.80
2019-06-26T22:58:03.082Z,69.82
2019-06-26T23:00:33.203Z,69.73
2019-06-26T23:03:04.810Z,69.15
2019-06-26T23:05:34.943Z,69.32
2019-06-26T23:08:05.103Z,69.57
2019-06-26T23:10:35.295Z,69.63
2019-06-26T23:13:05.456Z,69.34
2019-06-26T23:15:35.601Z,69.16
2019-06-26T23:18:05.758Z,69.35
2019-06-26T23:20:35.896Z,69.84
2019-06-26T23:23:06.083Z,68.94
2019-06-26T23:25:36.194Z,69.37
2019-06-26T23:28:06.322Z,68.92
2019-06-26T23:30:36.459Z,69.43
2019-06-26T23:33:06.620Z,69.28
2019-06-26T23:35:36.782Z,69.17
2019-06-26T23:38:06.913Z,68.89
2019-06-26T23:40:37.104Z,69.18
2019-06-26T23:43:07.171Z,69.39
2019-06-26T23:45:37.290Z,68.90
2019-06-26T23:48:07.435Z,68.36
2019-06-26T23:50:37.579Z,69.03
2019-06-26T23:53:07.795Z,68.92
2019-06-26T23:55:37.931Z,68.70
2019-06-26T23:58:08.059Z,69.15
